sensor_id;sensor_type;location;lat;lon;timestamp;pressure;altitude;pressure_sealevel;temperature;humidity
53023;BME280;38913;44.338;11.206;2022-12-29T00:01:17;100826.91;;;16.55;83.39
53023;BME280;38913;44.338;11.206;2022-12-29T00:03:45;100821.72;;;16.60;82.51
53023;BME280;38913;44.338;11.206;2022-12-29T00:06:10;100820.66;;;16.49;83.09
53023;BME280;38913;44.338;11.206;2022-12-29T00:08:36;100810.72;;;16.45;83.28
53023;BME280;38913;44.338;11.206;2022-12-29T00:11:21;100815.59;;;16.60;83.06
53023;BME280;38913;44.338;11.206;2022-12-29T00:13:47;100815.59;;;16.60;82.38
53023;BME280;38913;44.338;11.206;2022-12-29T00:16:32;100813.72;;;16.36;84.18
53023;BME280;38913;44.338;11.206;2022-12-29T00:18:58;100809.41;;;16.23;83.80
53023;BME280;38913;44.338;11.206;2022-12-29T00:21:25;100799.72;;;16.29;84.90
53023;BME280;38913;44.338;11.206;2022-12-29T00:24:13;100801.75;;;15.66;90.18
53023;BME280;38913;44.338;11.206;2022-12-29T00:29:57;100792.84;;;15.60;90.17
53023;BME280;38913;44.338;11.206;2022-12-29T00:32:42;100782.22;;;16.09;87.71
53023;BME280;38913;44.338;11.206;2022-12-29T00:35:35;100785.94;;;16.32;84.99
53023;BME280;38913;44.338;11.206;2022-12-29T00:38:03;100779.94;;;16.25;85.79
53023;BME280;38913;44.338;11.206;2022-12-29T00:40:49;100787.22;;;16.41;84.06
53023;BME280;38913;44.338;11.206;2022-12-29T00:43:33;100784.22;;;16.26;84.63
53023;BME280;38913;44.338;11.206;2022-12-29T00:46:17;100793.81;;;15.96;86.67
53023;BME280;38913;44.338;11.206;2022-12-29T00:48:43;100787.69;;;16.26;84.43
53023;BME280;38913;44.338;11.206;2022-12-29T00:51:27;100776.88;;;15.29;93.05
53023;BME280;38913;44.338;11.206;2022-12-29T00:53:52;100779.59;;;15.41;92.38
53023;BME280;38913;44.338;11.206;2022-12-29T00:56:18;100783.63;;;15.63;92.59
53023;BME280;38913;44.338;11.206;2022-12-29T00:58:43;100783.53;;;15.69;90.27
53023;BME280;38913;44.338;11.206;2022-12-29T01:01:09;100779.22;;;15.56;89.90
53023;BME280;38913;44.338;11.206;2022-12-29T01:03:35;100778.19;;;15.39;91.09
53023;BME280;38913;44.338;11.206;2022-12-29T01:06:02;100776.28;;;15.09;95.22
53023;BME280;38913;44.338;11.206;2022-12-29T01:08:29;100783.38;;;15.15;96.16
53023;BME280;38913;44.338;11.206;2022-12-29T01:11:06;100776.19;;;15.34;91.90
53023;BME280;38913;44.338;11.206;2022-12-29T01:13:31;100777.16;;;15.89;88.94
53023;BME280;38913;44.338;11.206;2022-12-29T01:15:57;100767.41;;;16.13;87.65
53023;BME280;38913;44.338;11.206;2022-12-29T01:18:23;100779.38;;;16.47;84.46
53023;BME280;38913;44.338;11.206;2022-12-29T01:20:49;100775.16;;;15.84;87.40
53023;BME280;38913;44.338;11.206;2022-12-29T01:23:15;100765.81;;;14.95;93.94
53023;BME280;38913;44.338;11.206;2022-12-29T01:25:41;100763.31;;;15.19;95.28
53023;BME280;38913;44.338;11.206;2022-12-29T01:28:06;100757.56;;;15.41;94.00
53023;BME280;38913;44.338;11.206;2022-12-29T01:30:36;100767.56;;;16.19;87.45
53023;BME280;38913;44.338;11.206;2022-12-29T01:33:01;100774.03;;;15.61;89.91
53023;BME280;38913;44.338;11.206;2022-12-29T01:35:27;100780.94;;;15.81;89.76
53023;BME280;38913;44.338;11.206;2022-12-29T01:37:53;100777.97;;;15.89;90.05
53023;BME280;38913;44.338;11.206;2022-12-29T01:40:18;100776.41;;;15.51;91.42
53023;BME280;38913;44.338;11.206;2022-12-29T01:42:44;100766.84;;;15.31;93.25
53023;BME280;38913;44.338;11.206;2022-12-29T01:45:11;100767.81;;;15.37;93.65
53023;BME280;38913;44.338;11.206;2022-12-29T01:47:58;100764.59;;;15.47;93.96
53023;BME280;38913;44.338;11.206;2022-12-29T01:50:29;100759.69;;;14.69;98.84
53023;BME280;38913;44.338;11.206;2022-12-29T01:53:03;100773.03;;;15.25;95.59
53023;BME280;38913;44.338;11.206;2022-12-29T01:55:34;100775.94;;;15.24;95.95
53023;BME280;38913;44.338;11.206;2022-12-29T01:58:04;100772.28;;;15.18;96.24
53023;BME280;38913;44.338;11.206;2022-12-29T02:00:31;100778.94;;;15.09;95.95
53023;BME280;38913;44.338;11.206;2022-12-29T02:02:57;100774.50;;;15.40;93.30
53023;BME280;38913;44.338;11.206;2022-12-29T02:05:36;100771.59;;;16.09;88.57
53023;BME280;38913;44.338;11.206;2022-12-29T02:08:03;100775.78;;;16.29;86.53
53023;BME280;38913;44.338;11.206;2022-12-29T02:10:31;100769.19;;;15.40;91.90
53023;BME280;38913;44.338;11.206;2022-12-29T02:12:58;100771.19;;;15.44;93.56
53023;BME280;38913;44.338;11.206;2022-12-29T02:20:58;100767.59;;;16.54;84.43
53023;BME280;38913;44.338;11.206;2022-12-29T02:31:28;100751.06;;;15.18;92.11
53023;BME280;38913;44.338;11.206;2022-12-29T02:43:23;100744.13;;;16.51;86.98
53023;BME280;38913;44.338;11.206;2022-12-29T02:46:09;100756.22;;;16.23;86.16
53023;BME280;38913;44.338;11.206;2022-12-29T02:48:38;100755.88;;;16.32;86.01
53023;BME280;38913;44.338;11.206;2022-12-29T02:52:18;100743.88;;;16.41;83.03
53023;BME280;38913;44.338;11.206;2022-12-29T02:54:20;100752.28;;;15.83;87.90
53023;BME280;38913;44.338;11.206;2022-12-29T02:59:52;100743.41;;;16.32;84.54
53023;BME280;38913;44.338;11.206;2022-12-29T03:10:47;100735.78;;;16.72;84.48
53023;BME280;38913;44.338;11.206;2022-12-29T03:13:24;100738.44;;;16.48;85.24
53023;BME280;38913;44.338;11.206;2022-12-29T03:24:40;100707.13;;;16.62;83.35
53023;BME280;38913;44.338;11.206;2022-12-29T03:27:10;100702.25;;;16.70;83.29
53023;BME280;38913;44.338;11.206;2022-12-29T03:29:45;100703.88;;;16.48;84.00
53023;BME280;38913;44.338;11.206;2022-12-29T03:32:13;100709.78;;;16.62;84.02
53023;BME280;38913;44.338;11.206;2022-12-29T03:34:39;100713.47;;;16.13;86.96
53023;BME280;38913;44.338;11.206;2022-12-29T03:37:11;100704.81;;;16.29;87.45
53023;BME280;38913;44.338;11.206;2022-12-29T03:39:38;100696.72;;;16.60;84.75
53023;BME280;38913;44.338;11.206;2022-12-29T03:42:07;100702.25;;;16.59;84.12
53023;BME280;38913;44.338;11.206;2022-12-29T03:44:37;100698.19;;;16.56;84.49
53023;BME280;38913;44.338;11.206;2022-12-29T03:47:05;100705.56;;;15.33;94.44
53023;BME280;38913;44.338;11.206;2022-12-29T03:49:30;100708.53;;;15.25;95.27
53023;BME280;38913;44.338;11.206;2022-12-29T03:51:56;100698.16;;;14.16;100.00
53023;BME280;38913;44.338;11.206;2022-12-29T03:54:22;100693.81;;;14.47;100.00
53023;BME280;38913;44.338;11.206;2022-12-29T03:56:48;100710.72;;;15.28;98.26
53023;BME280;38913;44.338;11.206;2022-12-29T03:59:13;100701.31;;;16.05;90.92
53023;BME280;38913;44.338;11.206;2022-12-29T04:01:39;100696.59;;;15.77;91.42
53023;BME280;38913;44.338;11.206;2022-12-29T04:04:04;100696.56;;;15.95;90.46
53023;BME280;38913;44.338;11.206;2022-12-29T04:06:30;100692.06;;;16.20;88.75
53023;BME280;38913;44.338;11.206;2022-12-29T04:08:55;100697.75;;;16.47;85.61
53023;BME280;38913;44.338;11.206;2022-12-29T04:11:21;100709.84;;;15.34;94.25
53023;BME280;38913;44.338;11.206;2022-12-29T04:13:47;100695.44;;;14.92;96.80
53023;BME280;38913;44.338;11.206;2022-12-29T04:16:12;100699.00;;;14.61;100.00
53023;BME280;38913;44.338;11.206;2022-12-29T04:18:38;100700.28;;;14.07;100.00
53023;BME280;38913;44.338;11.206;2022-12-29T04:21:03;100706.38;;;14.59;100.00
53023;BME280;38913;44.338;11.206;2022-12-29T04:23:34;100716.34;;;15.38;98.86
53023;BME280;38913;44.338;11.206;2022-12-29T04:26:00;100713.56;;;15.75;93.75
53023;BME280;38913;44.338;11.206;2022-12-29T04:28:27;100714.66;;;16.29;89.49
53023;BME280;38913;44.338;11.206;2022-12-29T04:30:52;100718.84;;;15.94;90.20
53023;BME280;38913;44.338;11.206;2022-12-29T04:33:18;100720.41;;;16.14;89.42
53023;BME280;38913;44.338;11.206;2022-12-29T04:35:44;100720.19;;;16.39;86.39
53023;BME280;38913;44.338;11.206;2022-12-29T04:38:11;100726.16;;;16.11;88.40
53023;BME280;38913;44.338;11.206;2022-12-29T04:40:38;100733.69;;;16.38;86.75
53023;BME280;38913;44.338;11.206;2022-12-29T04:43:04;100731.22;;;16.00;89.34
53023;BME280;38913;44.338;11.206;2022-12-29T04:45:30;100730.69;;;16.22;88.04
53023;BME280;38913;44.338;11.206;2022-12-29T04:47:55;100726.88;;;16.78;84.69
53023;BME280;38913;44.338;11.206;2022-12-29T04:50:20;100725.97;;;16.84;84.12
53023;BME280;38913;44.338;11.206;2022-12-29T04:52:46;100725.03;;;17.02;82.97
53023;BME280;38913;44.338;11.206;2022-12-29T04:55:12;100721.91;;;16.81;84.00
53023;BME280;38913;44.338;11.206;2022-12-29T04:57:37;100714.88;;;16.63;83.62
53023;BME280;38913;44.338;11.206;2022-12-29T05:00:03;100719.25;;;16.34;86.75
53023;BME280;38913;44.338;11.206;2022-12-29T05:02:29;100740.44;;;16.64;86.20
53023;BME280;38913;44.338;11.206;2022-12-29T05:04:54;100733.25;;;16.53;86.34
53023;BME280;38913;44.338;11.206;2022-12-29T05:07:20;100729.53;;;16.66;85.89
53023;BME280;38913;44.338;11.206;2022-12-29T05:09:45;100728.59;;;16.72;84.49
53023;BME280;38913;44.338;11.206;2022-12-29T05:12:11;100726.16;;;16.94;83.77
53023;BME280;38913;44.338;11.206;2022-12-29T05:14:36;100729.31;;;16.91;83.62
53023;BME280;38913;44.338;11.206;2022-12-29T05:17:01;100728.69;;;16.89;83.80
53023;BME280;38913;44.338;11.206;2022-12-29T05:19:27;100725.16;;;15.51;94.71
53023;BME280;38913;44.338;11.206;2022-12-29T05:21:52;100725.63;;;16.45;88.30
53023;BME280;38913;44.338;11.206;2022-12-29T05:24:18;100720.41;;;16.74;86.28
53023;BME280;38913;44.338;11.206;2022-12-29T05:26:43;100714.94;;;16.92;84.24
53023;BME280;38913;44.338;11.206;2022-12-29T05:29:09;100720.50;;;16.07;88.99
53023;BME280;38913;44.338;11.206;2022-12-29T05:31:34;100712.66;;;16.12;90.44
53023;BME280;38913;44.338;11.206;2022-12-29T05:34:01;100720.63;;;16.12;90.31
53023;BME280;38913;44.338;11.206;2022-12-29T05:36:26;100720.09;;;16.46;88.02
53023;BME280;38913;44.338;11.206;2022-12-29T05:38:52;100711.28;;;16.34;88.27
53023;BME280;38913;44.338;11.206;2022-12-29T05:41:17;100719.44;;;16.08;89.73
53023;BME280;38913;44.338;11.206;2022-12-29T05:43:43;100711.16;;;16.40;87.39
53023;BME280;38913;44.338;11.206;2022-12-29T05:46:08;100703.88;;;16.48;86.61
53023;BME280;38913;44.338;11.206;2022-12-29T05:48:33;100708.59;;;16.22;86.46
53023;BME280;38913;44.338;11.206;2022-12-29T05:50:59;100710.25;;;16.47;87.91
53023;BME280;38913;44.338;11.206;2022-12-29T05:53:24;100709.50;;;15.92;91.37
53023;BME280;38913;44.338;11.206;2022-12-29T05:55:50;100709.88;;;15.77;93.82
53023;BME280;38913;44.338;11.206;2022-12-29T05:58:16;100712.19;;;16.15;91.37
53023;BME280;38913;44.338;11.206;2022-12-29T06:00:42;100708.38;;;16.35;89.40
53023;BME280;38913;44.338;11.206;2022-12-29T06:03:07;100703.19;;;16.40;88.05
53023;BME280;38913;44.338;11.206;2022-12-29T06:05:33;100703.50;;;15.96;91.53
53023;BME280;38913;44.338;11.206;2022-12-29T06:07:59;100706.53;;;16.24;89.99
53023;BME280;38913;44.338;11.206;2022-12-29T06:10:24;100700.06;;;16.55;86.55
53023;BME280;38913;44.338;11.206;2022-12-29T06:12:51;100701.56;;;16.15;87.54
53023;BME280;38913;44.338;11.206;2022-12-29T06:15:17;100703.34;;;15.60;91.61
53023;BME280;38913;44.338;11.206;2022-12-29T06:17:43;100703.75;;;14.77;99.13
53023;BME280;38913;44.338;11.206;2022-12-29T06:20:10;100708.91;;;15.10;97.62
53023;BME280;38913;44.338;11.206;2022-12-29T06:22:36;100703.19;;;14.94;98.34
53023;BME280;38913;44.338;11.206;2022-12-29T06:25:02;100715.59;;;15.31;95.73
53023;BME280;38913;44.338;11.206;2022-12-29T06:27:28;100713.34;;;14.53;100.00
53023;BME280;38913;44.338;11.206;2022-12-29T06:29:53;100717.00;;;15.33;96.09
53023;BME280;38913;44.338;11.206;2022-12-29T06:32:19;100714.59;;;14.76;99.30
53023;BME280;38913;44.338;11.206;2022-12-29T06:34:44;100717.22;;;14.94;99.84
53023;BME280;38913;44.338;11.206;2022-12-29T06:37:10;100725.03;;;15.88;92.11
53023;BME280;38913;44.338;11.206;2022-12-29T06:39:36;100727.53;;;15.71;94.69
53023;BME280;38913;44.338;11.206;2022-12-29T06:42:01;100732.72;;;16.08;91.56
53023;BME280;38913;44.338;11.206;2022-12-29T06:44:27;100727.25;;;16.46;88.95
53023;BME280;38913;44.338;11.206;2022-12-29T06:46:52;100728.84;;;16.59;87.36
53023;BME280;38913;44.338;11.206;2022-12-29T06:49:17;100728.72;;;16.77;86.12
53023;BME280;38913;44.338;11.206;2022-12-29T06:51:43;100728.50;;;16.55;87.82
53023;BME280;38913;44.338;11.206;2022-12-29T06:54:09;100722.63;;;16.53;87.87
53023;BME280;38913;44.338;11.206;2022-12-29T06:56:34;100721.88;;;16.93;85.23
53023;BME280;38913;44.338;11.206;2022-12-29T06:58:59;100728.69;;;16.89;85.08
53023;BME280;38913;44.338;11.206;2022-12-29T07:01:26;100728.38;;;16.74;84.84
53023;BME280;38913;44.338;11.206;2022-12-29T07:03:52;100727.72;;;16.54;87.08
53023;BME280;38913;44.338;11.206;2022-12-29T07:06:17;100724.53;;;16.22;87.73
53023;BME280;38913;44.338;11.206;2022-12-29T07:08:43;100720.97;;;16.04;89.17
53023;BME280;38913;44.338;11.206;2022-12-29T07:11:08;100729.63;;;16.11;89.17
53023;BME280;38913;44.338;11.206;2022-12-29T07:13:34;100726.28;;;15.73;91.69
53023;BME280;38913;44.338;11.206;2022-12-29T07:15:59;100724.75;;;15.66;93.37
53023;BME280;38913;44.338;11.206;2022-12-29T07:18:24;100738.31;;;16.31;89.24
53023;BME280;38913;44.338;11.206;2022-12-29T07:20:50;100734.25;;;15.73;92.21
53023;BME280;38913;44.338;11.206;2022-12-29T07:23:15;100736.72;;;15.87;91.97
53023;BME280;38913;44.338;11.206;2022-12-29T07:25:41;100750.41;;;15.72;92.80
53023;BME280;38913;44.338;11.206;2022-12-29T07:28:06;100755.69;;;15.60;95.25
53023;BME280;38913;44.338;11.206;2022-12-29T07:30:32;100756.06;;;15.75;95.31
53023;BME280;38913;44.338;11.206;2022-12-29T07:32:58;100748.81;;;15.83;93.61
53023;BME280;38913;44.338;11.206;2022-12-29T07:35:23;100765.38;;;15.85;93.45
53023;BME280;38913;44.338;11.206;2022-12-29T07:37:48;100758.59;;;15.70;94.58
53023;BME280;38913;44.338;11.206;2022-12-29T07:40:14;100758.84;;;15.69;95.54
53023;BME280;38913;44.338;11.206;2022-12-29T07:42:39;100755.00;;;15.65;94.79
53023;BME280;38913;44.338;11.206;2022-12-29T07:45:05;100766.72;;;15.87;93.57
53023;BME280;38913;44.338;11.206;2022-12-29T07:47:31;100758.94;;;15.93;93.31
53023;BME280;38913;44.338;11.206;2022-12-29T07:49:57;100770.63;;;16.04;92.76
53023;BME280;38913;44.338;11.206;2022-12-29T07:52:22;100767.41;;;15.52;96.96
53023;BME280;38913;44.338;11.206;2022-12-29T07:54:47;100774.31;;;16.02;92.68
53023;BME280;38913;44.338;11.206;2022-12-29T07:57:13;100776.38;;;15.70;94.73
53023;BME280;38913;44.338;11.206;2022-12-29T07:59:38;100777.09;;;15.77;93.80
53023;BME280;38913;44.338;11.206;2022-12-29T08:02:04;100768.13;;;16.21;91.51
53023;BME280;38913;44.338;11.206;2022-12-29T08:04:29;100767.94;;;16.46;89.53
53023;BME280;38913;44.338;11.206;2022-12-29T08:06:55;100774.53;;;16.91;87.45
53023;BME280;38913;44.338;11.206;2022-12-29T08:09:20;100767.09;;;17.29;84.55
53023;BME280;38913;44.338;11.206;2022-12-29T08:11:45;100773.34;;;16.99;86.21
53023;BME280;38913;44.338;11.206;2022-12-29T08:14:11;100778.22;;;17.14;85.55
53023;BME280;38913;44.338;11.206;2022-12-29T08:16:37;100775.44;;;17.21;85.06
53023;BME280;38913;44.338;11.206;2022-12-29T08:19:03;100772.56;;;16.99;85.81
53023;BME280;38913;44.338;11.206;2022-12-29T08:21:31;100780.25;;;17.36;84.62
53023;BME280;38913;44.338;11.206;2022-12-29T08:23:56;100778.47;;;17.54;83.26
53023;BME280;38913;44.338;11.206;2022-12-29T08:26:22;100777.19;;;17.15;85.46
53023;BME280;38913;44.338;11.206;2022-12-29T08:28:47;100779.38;;;17.59;83.49
53023;BME280;38913;44.338;11.206;2022-12-29T08:31:13;100774.81;;;17.72;81.89
53023;BME280;38913;44.338;11.206;2022-12-29T08:33:39;100764.81;;;17.79;81.21
53023;BME280;38913;44.338;11.206;2022-12-29T08:36:06;100768.22;;;17.74;81.96
53023;BME280;38913;44.338;11.206;2022-12-29T08:38:33;100765.97;;;17.83;80.96
53023;BME280;38913;44.338;11.206;2022-12-29T08:41:00;100770.00;;;17.86;80.13
53023;BME280;38913;44.338;11.206;2022-12-29T08:43:28;100768.59;;;17.66;81.54
53023;BME280;38913;44.338;11.206;2022-12-29T08:45:54;100759.38;;;17.04;85.25
53023;BME280;38913;44.338;11.206;2022-12-29T08:48:19;100769.50;;;17.43;83.22
53023;BME280;38913;44.338;11.206;2022-12-29T08:50:48;100773.03;;;17.19;85.26
53023;BME280;38913;44.338;11.206;2022-12-29T08:53:14;100768.75;;;16.94;85.30
53023;BME280;38913;44.338;11.206;2022-12-29T08:55:39;100772.00;;;16.61;88.13
53023;BME280;38913;44.338;11.206;2022-12-29T08:58:05;100774.19;;;16.64;86.98
53023;BME280;38913;44.338;11.206;2022-12-29T09:00:31;100776.94;;;16.33;90.23
53023;BME280;38913;44.338;11.206;2022-12-29T09:02:56;100775.81;;;16.53;88.76
53023;BME280;38913;44.338;11.206;2022-12-29T09:05:22;100774.19;;;16.76;89.06
53023;BME280;38913;44.338;11.206;2022-12-29T09:07:47;100777.66;;;17.12;86.63
53023;BME280;38913;44.338;11.206;2022-12-29T09:10:13;100785.75;;;17.05;87.10
53023;BME280;38913;44.338;11.206;2022-12-29T09:12:38;100776.75;;;16.70;89.37
53023;BME280;38913;44.338;11.206;2022-12-29T09:15:05;100785.81;;;16.27;91.13
53023;BME280;38913;44.338;11.206;2022-12-29T09:17:31;100784.03;;;16.75;89.52
53023;BME280;38913;44.338;11.206;2022-12-29T09:20:17;100788.19;;;16.47;91.46
53023;BME280;38913;44.338;11.206;2022-12-29T09:22:44;100785.75;;;16.69;88.42
53023;BME280;38913;44.338;11.206;2022-12-29T09:25:13;100789.47;;;16.80;89.05
53023;BME280;38913;44.338;11.206;2022-12-29T09:27:39;100786.09;;;17.09;87.65
53023;BME280;38913;44.338;11.206;2022-12-29T09:30:07;100782.88;;;17.07;86.19
53023;BME280;38913;44.338;11.206;2022-12-29T09:32:34;100781.22;;;16.82;88.77
53023;BME280;38913;44.338;11.206;2022-12-29T09:35:00;100783.44;;;16.49;90.27
53023;BME280;38913;44.338;11.206;2022-12-29T09:37:25;100772.44;;;16.46;90.79
53023;BME280;38913;44.338;11.206;2022-12-29T09:39:51;100789.44;;;16.68;89.52
53023;BME280;38913;44.338;11.206;2022-12-29T09:42:23;100776.97;;;17.05;86.69
53023;BME280;38913;44.338;11.206;2022-12-29T09:47:42;100780.31;;;17.12;84.92
53023;BME280;38913;44.338;11.206;2022-12-29T09:52:50;100787.72;;;17.10;86.09
53023;BME280;38913;44.338;11.206;2022-12-29T09:55:21;100767.69;;;16.95;88.29
53023;BME280;38913;44.338;11.206;2022-12-29T09:58:00;100776.84;;;17.12;85.91
53023;BME280;38913;44.338;11.206;2022-12-29T10:00:55;100777.81;;;17.34;83.25
53023;BME280;38913;44.338;11.206;2022-12-29T10:03:24;100774.06;;;17.06;86.89
53023;BME280;38913;44.338;11.206;2022-12-29T10:08:45;100773.84;;;16.72;88.64
53023;BME280;38913;44.338;11.206;2022-12-29T10:17:27;100774.31;;;17.05;86.10
53023;BME280;38913;44.338;11.206;2022-12-29T10:25:26;100765.63;;;17.09;87.46
53023;BME280;38913;44.338;11.206;2022-12-29T10:27:56;100771.25;;;16.18;92.72
53023;BME280;38913;44.338;11.206;2022-12-29T10:30:23;100760.59;;;16.06;94.63
53023;BME280;38913;44.338;11.206;2022-12-29T10:32:53;100755.91;;;16.55;89.78
53023;BME280;38913;44.338;11.206;2022-12-29T10:35:21;100750.47;;;16.26;91.93
53023;BME280;38913;44.338;11.206;2022-12-29T10:37:56;100760.88;;;16.76;90.39
53023;BME280;38913;44.338;11.206;2022-12-29T10:40:43;100750.69;;;15.14;99.60
53023;BME280;38913;44.338;11.206;2022-12-29T10:43:29;100751.81;;;16.05;99.06
53023;BME280;38913;44.338;11.206;2022-12-29T10:46:02;100749.91;;;16.60;92.35
53023;BME280;38913;44.338;11.206;2022-12-29T10:48:33;100764.34;;;16.28;92.69
53023;BME280;38913;44.338;11.206;2022-12-29T10:51:04;100749.09;;;15.63;99.48
53023;BME280;38913;44.338;11.206;2022-12-29T10:53:35;100745.63;;;14.94;100.00
53023;BME280;38913;44.338;11.206;2022-12-29T10:56:09;100739.16;;;15.88;100.00
53023;BME280;38913;44.338;11.206;2022-12-29T10:58:40;100740.75;;;15.89;99.06
53023;BME280;38913;44.338;11.206;2022-12-29T11:01:13;100741.22;;;15.86;98.03
53023;BME280;38913;44.338;11.206;2022-12-29T11:03:46;100747.25;;;15.63;100.00
53023;BME280;38913;44.338;11.206;2022-12-29T11:06:25;100739.75;;;15.41;100.00
53023;BME280;38913;44.338;11.206;2022-12-29T11:09:02;100735.03;;;15.43;100.00
53023;BME280;38913;44.338;11.206;2022-12-29T11:11:33;100729.66;;;15.81;98.71
53023;BME280;38913;44.338;11.206;2022-12-29T11:16:39;100724.97;;;14.96;100.00
53023;BME280;38913;44.338;11.206;2022-12-29T11:19:19;100727.06;;;15.74;99.21
53023;BME280;38913;44.338;11.206;2022-12-29T11:21:45;100732.31;;;16.23;96.65
53023;BME280;38913;44.338;11.206;2022-12-29T11:24:36;100727.47;;;15.28;100.00
53023;BME280;38913;44.338;11.206;2022-12-29T11:27:26;100726.63;;;15.46;100.00
53023;BME280;38913;44.338;11.206;2022-12-29T11:29:53;100728.56;;;16.00;96.73
53023;BME280;38913;44.338;11.206;2022-12-29T11:32:23;100719.78;;;16.00;100.00
53023;BME280;38913;44.338;11.206;2022-12-29T11:34:49;100724.19;;;15.75;100.00
53023;BME280;38913;44.338;11.206;2022-12-29T11:39:56;100701.13;;;16.42;93.63
53023;BME280;38913;44.338;11.206;2022-12-29T11:42:55;100703.69;;;15.52;98.47
53023;BME280;38913;44.338;11.206;2022-12-29T11:45:26;100691.44;;;15.51;99.69
53023;BME280;38913;44.338;11.206;2022-12-29T11:47:59;100682.16;;;16.51;94.45
53023;BME280;38913;44.338;11.206;2022-12-29T11:50:27;100694.13;;;16.77;91.81
53023;BME280;38913;44.338;11.206;2022-12-29T11:55:28;100673.50;;;16.96;90.81
53023;BME280;38913;44.338;11.206;2022-12-29T11:57:55;100677.78;;;17.09;89.26
53023;BME280;38913;44.338;11.206;2022-12-29T12:00:23;100684.44;;;16.59;91.19
53023;BME280;38913;44.338;11.206;2022-12-29T12:03:00;100685.78;;;17.09;90.23
53023;BME280;38913;44.338;11.206;2022-12-29T12:05:46;100680.44;;;17.09;87.38
53023;BME280;38913;44.338;11.206;2022-12-29T12:08:41;100673.09;;;17.92;83.12
53023;BME280;38913;44.338;11.206;2022-12-29T12:11:36;100664.81;;;17.42;85.11
53023;BME280;38913;44.338;11.206;2022-12-29T12:14:19;100652.38;;;17.48;83.70
53023;BME280;38913;44.338;11.206;2022-12-29T12:16:51;100647.47;;;17.74;82.76
53023;BME280;38913;44.338;11.206;2022-12-29T12:19:32;100640.66;;;17.32;86.72
53023;BME280;38913;44.338;11.206;2022-12-29T12:22:10;100651.19;;;16.97;87.75
53023;BME280;38913;44.338;11.206;2022-12-29T12:24:51;100642.25;;;16.63;89.92
53023;BME280;38913;44.338;11.206;2022-12-29T12:27:24;100646.13;;;17.25;86.65
53023;BME280;38913;44.338;11.206;2022-12-29T12:30:24;100642.47;;;17.14;87.27
53023;BME280;38913;44.338;11.206;2022-12-29T12:33:03;100637.22;;;16.90;89.14
53023;BME280;38913;44.338;11.206;2022-12-29T12:35:44;100637.75;;;17.04;87.40
53023;BME280;38913;44.338;11.206;2022-12-29T12:40:59;100637.16;;;17.14;86.32
53023;BME280;38913;44.338;11.206;2022-12-29T12:43:40;100618.81;;;17.64;83.43
53023;BME280;38913;44.338;11.206;2022-12-29T12:46:23;100632.53;;;17.56;84.02
53023;BME280;38913;44.338;11.206;2022-12-29T12:58:03;100608.94;;;15.77;98.94
53023;BME280;38913;44.338;11.206;2022-12-29T13:00:38;100608.13;;;15.64;99.46
53023;BME280;38913;44.338;11.206;2022-12-29T13:03:25;100594.78;;;16.19;94.87
53023;BME280;38913;44.338;11.206;2022-12-29T13:06:26;100596.44;;;15.53;99.32
53023;BME280;38913;44.338;11.206;2022-12-29T13:19:36;100599.00;;;15.60;99.42
53023;BME280;38913;44.338;11.206;2022-12-29T13:24:55;100595.28;;;15.61;98.45
53023;BME280;38913;44.338;11.206;2022-12-29T13:27:34;100595.34;;;16.21;95.30
53023;BME280;38913;44.338;11.206;2022-12-29T13:30:07;100596.66;;;17.12;89.33
53023;BME280;38913;44.338;11.206;2022-12-29T13:32:53;100597.66;;;17.40;87.51
53023;BME280;38913;44.338;11.206;2022-12-29T13:38:09;100599.13;;;15.89;94.04
53023;BME280;38913;44.338;11.206;2022-12-29T13:40:40;100600.31;;;16.17;96.49
53023;BME280;38913;44.338;11.206;2022-12-29T13:43:08;100609.44;;;17.44;86.14
53023;BME280;38913;44.338;11.206;2022-12-29T13:45:34;100606.00;;;16.09;93.46
53023;BME280;38913;44.338;11.206;2022-12-29T13:50:34;100605.53;;;16.00;98.08
53023;BME280;38913;44.338;11.206;2022-12-29T13:55:45;100607.44;;;17.86;85.26
53023;BME280;38913;44.338;11.206;2022-12-29T14:03:47;100619.88;;;17.63;84.53
53023;BME280;38913;44.338;11.206;2022-12-29T14:08:50;100624.44;;;16.51;91.91
53023;BME280;38913;44.338;11.206;2022-12-29T14:11:21;100640.44;;;16.92;90.07
53023;BME280;38913;44.338;11.206;2022-12-29T14:13:52;100636.09;;;16.62;91.93
53023;BME280;38913;44.338;11.206;2022-12-29T14:16:29;100623.38;;;16.52;92.53
53023;BME280;38913;44.338;11.206;2022-12-29T14:19:03;100632.69;;;16.02;96.59
53023;BME280;38913;44.338;11.206;2022-12-29T14:21:30;100639.81;;;16.61;93.67
53023;BME280;38913;44.338;11.206;2022-12-29T14:26:52;100628.22;;;15.29;100.00
53023;BME280;38913;44.338;11.206;2022-12-29T14:31:51;100627.94;;;15.92;97.38
53023;BME280;38913;44.338;11.206;2022-12-29T14:36:55;100622.03;;;16.38;94.93
53023;BME280;38913;44.338;11.206;2022-12-29T14:44:31;100631.16;;;16.54;94.32
53023;BME280;38913;44.338;11.206;2022-12-29T14:47:00;100626.84;;;16.65;93.83
53023;BME280;38913;44.338;11.206;2022-12-29T14:49:41;100625.84;;;15.94;98.44
53023;BME280;38913;44.338;11.206;2022-12-29T14:52:21;100617.78;;;16.13;97.18
53023;BME280;38913;44.338;11.206;2022-12-29T14:57:25;100611.59;;;17.30;87.97
53023;BME280;38913;44.338;11.206;2022-12-29T14:59:54;100612.75;;;16.64;93.50
53023;BME280;38913;44.338;11.206;2022-12-29T15:02:25;100609.97;;;16.59;93.91
53023;BME280;38913;44.338;11.206;2022-12-29T15:04:53;100616.50;;;16.39;95.21